sensor_id;sensor_type;location;lat;lon;timestamp;P1;durP1;ratioP1;P2;durP2;ratioP2
27543;SDS011;17996;51.056;3.656;2024-03-06T00:00:03;18.85;;;12.95;;
27543;SDS011;17996;51.056;3.656;2024-03-06T00:02:30;19.90;;;13.65;;
27543;SDS011;17996;51.056;3.656;2024-03-06T00:04:59;18.40;;;13.85;;
27543;SDS011;17996;51.056;3.656;2024-03-06T00:07:28;18.38;;;13.30;;
27543;SDS011;17996;51.056;3.656;2024-03-06T00:12:20;20.52;;;12.50;;
27543;SDS011;17996;51.056;3.656;2024-03-06T00:14:47;17.25;;;12.27;;
27543;SDS011;17996;51.056;3.656;2024-03-06T00:17:13;17.42;;;13.20;;
27543;SDS011;17996;51.056;3.656;2024-03-06T00:19:41;18.50;;;13.07;;
27543;SDS011;17996;51.056;3.656;2024-03-06T00:22:07;20.55;;;13.65;;
27543;SDS011;17996;51.056;3.656;2024-03-06T00:24:34;19.35;;;13.38;;
27543;SDS011;17996;51.056;3.656;2024-03-06T00:27:01;21.52;;;12.93;;
27543;SDS011;17996;51.056;3.656;2024-03-06T00:29:30;18.02;;;12.73;;
27543;SDS011;17996;51.056;3.656;2024-03-06T00:31:57;23.40;;;13.52;;
27543;SDS011;17996;51.056;3.656;2024-03-06T00:34:23;19.05;;;13.20;;
27543;SDS011;17996;51.056;3.656;2024-03-06T00:36:49;20.85;;;12.95;;
27543;SDS011;17996;51.056;3.656;2024-03-06T00:39:17;17.25;;;12.90;;
27543;SDS011;17996;51.056;3.656;2024-03-06T00:41:45;23.20;;;12.70;;
27543;SDS011;17996;51.056;3.656;2024-03-06T00:44:11;23.80;;;13.63;;
27543;SDS011;17996;51.056;3.656;2024-03-06T00:51:36;20.63;;;12.38;;
27543;SDS011;17996;51.056;3.656;2024-03-06T00:54:02;17.65;;;13.02;;
27543;SDS011;17996;51.056;3.656;2024-03-06T00:56:29;17.33;;;12.73;;
27543;SDS011;17996;51.056;3.656;2024-03-06T00:58:56;15.73;;;12.45;;
27543;SDS011;17996;51.056;3.656;2024-03-06T01:01:22;17.95;;;12.75;;
27543;SDS011;17996;51.056;3.656;2024-03-06T01:03:48;17.65;;;12.65;;
27543;SDS011;17996;51.056;3.656;2024-03-06T01:06:14;16.08;;;11.85;;
27543;SDS011;17996;51.056;3.656;2024-03-06T01:08:41;15.40;;;11.48;;
27543;SDS011;17996;51.056;3.656;2024-03-06T01:11:13;16.15;;;12.60;;
27543;SDS011;17996;51.056;3.656;2024-03-06T01:13:42;19.23;;;13.63;;
27543;SDS011;17996;51.056;3.656;2024-03-06T01:16:10;22.23;;;13.77;;
27543;SDS011;17996;51.056;3.656;2024-03-06T01:18:39;24.67;;;14.10;;
27543;SDS011;17996;51.056;3.656;2024-03-06T01:21:05;21.63;;;14.52;;
27543;SDS011;17996;51.056;3.656;2024-03-06T01:23:35;17.75;;;12.98;;
27543;SDS011;17996;51.056;3.656;2024-03-06T01:26:03;18.48;;;11.90;;
27543;SDS011;17996;51.056;3.656;2024-03-06T01:28:29;17.25;;;12.63;;
27543;SDS011;17996;51.056;3.656;2024-03-06T01:30:56;21.75;;;12.20;;
27543;SDS011;17996;51.056;3.656;2024-03-06T01:33:26;21.30;;;13.60;;
27543;SDS011;17996;51.056;3.656;2024-03-06T01:35:53;17.42;;;12.98;;
27543;SDS011;17996;51.056;3.656;2024-03-06T01:38:22;18.20;;;12.98;;
27543;SDS011;17996;51.056;3.656;2024-03-06T01:40:48;21.02;;;13.82;;
27543;SDS011;17996;51.056;3.656;2024-03-06T01:43:20;22.40;;;14.32;;
27543;SDS011;17996;51.056;3.656;2024-03-06T01:45:47;17.88;;;13.52;;
27543;SDS011;17996;51.056;3.656;2024-03-06T01:48:17;21.27;;;14.43;;
27543;SDS011;17996;51.056;3.656;2024-03-06T01:50:46;18.27;;;13.63;;
27543;SDS011;17996;51.056;3.656;2024-03-06T01:53:14;18.38;;;13.80;;
27543;SDS011;17996;51.056;3.656;2024-03-06T01:55:43;20.23;;;13.20;;
27543;SDS011;17996;51.056;3.656;2024-03-06T01:58:10;16.88;;;13.88;;
27543;SDS011;17996;51.056;3.656;2024-03-06T02:03:09;20.88;;;13.55;;
27543;SDS011;17996;51.056;3.656;2024-03-06T02:05:36;20.50;;;14.57;;
27543;SDS011;17996;51.056;3.656;2024-03-06T02:08:02;18.67;;;14.70;;
27543;SDS011;17996;51.056;3.656;2024-03-06T02:13:00;18.35;;;13.00;;
27543;SDS011;17996;51.056;3.656;2024-03-06T02:17:55;19.55;;;13.07;;
27543;SDS011;17996;51.056;3.656;2024-03-06T02:20:25;18.25;;;12.35;;
27543;SDS011;17996;51.056;3.656;2024-03-06T02:22:52;19.00;;;12.48;;
27543;SDS011;17996;51.056;3.656;2024-03-06T02:25:19;19.80;;;13.45;;
27543;SDS011;17996;51.056;3.656;2024-03-06T02:27:48;21.42;;;13.30;;
27543;SDS011;17996;51.056;3.656;2024-03-06T02:30:18;18.13;;;13.30;;
27543;SDS011;17996;51.056;3.656;2024-03-06T02:32:45;34.45;;;14.30;;
27543;SDS011;17996;51.056;3.656;2024-03-06T02:35:13;16.02;;;12.70;;
27543;SDS011;17996;51.056;3.656;2024-03-06T02:37:41;18.08;;;13.05;;
27543;SDS011;17996;51.056;3.656;2024-03-06T02:40:10;18.38;;;13.02;;
27543;SDS011;17996;51.056;3.656;2024-03-06T02:42:36;17.17;;;12.27;;
27543;SDS011;17996;51.056;3.656;2024-03-06T02:45:06;17.08;;;12.68;;
27543;SDS011;17996;51.056;3.656;2024-03-06T02:50:04;18.17;;;12.73;;
27543;SDS011;17996;51.056;3.656;2024-03-06T02:52:33;19.38;;;13.43;;
27543;SDS011;17996;51.056;3.656;2024-03-06T02:54:59;19.92;;;13.98;;
27543;SDS011;17996;51.056;3.656;2024-03-06T02:57:29;17.15;;;13.07;;
27543;SDS011;17996;51.056;3.656;2024-03-06T03:04:53;15.55;;;12.63;;
27543;SDS011;17996;51.056;3.656;2024-03-06T03:07:20;18.13;;;12.95;;
27543;SDS011;17996;51.056;3.656;2024-03-06T03:12:15;16.67;;;12.95;;
27543;SDS011;17996;51.056;3.656;2024-03-06T03:14:42;20.55;;;13.80;;
27543;SDS011;17996;51.056;3.656;2024-03-06T03:17:09;19.67;;;14.98;;
27543;SDS011;17996;51.056;3.656;2024-03-06T03:19:36;26.50;;;14.90;;
27543;SDS011;17996;51.056;3.656;2024-03-06T03:22:06;20.95;;;14.20;;
27543;SDS011;17996;51.056;3.656;2024-03-06T03:24:33;17.90;;;14.68;;
27543;SDS011;17996;51.056;3.656;2024-03-06T03:26:59;20.02;;;13.50;;
27543;SDS011;17996;51.056;3.656;2024-03-06T03:29:27;20.88;;;14.05;;
27543;SDS011;17996;51.056;3.656;2024-03-06T03:31:55;15.95;;;13.65;;
27543;SDS011;17996;51.056;3.656;2024-03-06T03:34:20;19.02;;;12.98;;
27543;SDS011;17996;51.056;3.656;2024-03-06T03:36:47;18.55;;;12.85;;
27543;SDS011;17996;51.056;3.656;2024-03-06T03:39:17;19.20;;;13.13;;
27543;SDS011;17996;51.056;3.656;2024-03-06T03:41:46;21.48;;;14.40;;
27543;SDS011;17996;51.056;3.656;2024-03-06T03:49:10;16.58;;;12.38;;
27543;SDS011;17996;51.056;3.656;2024-03-06T03:51:38;17.42;;;12.43;;
27543;SDS011;17996;51.056;3.656;2024-03-06T03:54:05;17.15;;;12.80;;
27543;SDS011;17996;51.056;3.656;2024-03-06T03:56:32;18.02;;;12.18;;
27543;SDS011;17996;51.056;3.656;2024-03-06T03:59:01;17.52;;;13.57;;
27543;SDS011;17996;51.056;3.656;2024-03-06T04:03:58;20.73;;;13.10;;
27543;SDS011;17996;51.056;3.656;2024-03-06T04:06:25;17.13;;;12.45;;
27543;SDS011;17996;51.056;3.656;2024-03-06T04:08:52;17.13;;;12.52;;
27543;SDS011;17996;51.056;3.656;2024-03-06T04:11:20;16.98;;;12.00;;
27543;SDS011;17996;51.056;3.656;2024-03-06T04:13:47;16.90;;;11.95;;
27543;SDS011;17996;51.056;3.656;2024-03-06T04:16:17;17.05;;;12.10;;
27543;SDS011;17996;51.056;3.656;2024-03-06T04:21:12;19.65;;;12.55;;
27543;SDS011;17996;51.056;3.656;2024-03-06T04:23:40;22.80;;;15.43;;
27543;SDS011;17996;51.056;3.656;2024-03-06T04:26:06;18.83;;;12.15;;
27543;SDS011;17996;51.056;3.656;2024-03-06T04:31:04;17.63;;;12.90;;
27543;SDS011;17996;51.056;3.656;2024-03-06T04:33:36;17.17;;;12.90;;
27543;SDS011;17996;51.056;3.656;2024-03-06T04:36:02;23.67;;;14.00;;
27543;SDS011;17996;51.056;3.656;2024-03-06T04:38:31;18.63;;;13.98;;
27543;SDS011;17996;51.056;3.656;2024-03-06T04:40:58;19.00;;;14.10;;
27543;SDS011;17996;51.056;3.656;2024-03-06T04:45:55;22.17;;;14.57;;
27543;SDS011;17996;51.056;3.656;2024-03-06T04:48:22;17.38;;;12.65;;
27543;SDS011;17996;51.056;3.656;2024-03-06T04:50:48;18.42;;;13.50;;
27543;SDS011;17996;51.056;3.656;2024-03-06T04:53:14;18.90;;;13.57;;
27543;SDS011;17996;51.056;3.656;2024-03-06T04:55:42;18.77;;;12.65;;
27543;SDS011;17996;51.056;3.656;2024-03-06T04:58:09;22.80;;;14.98;;
27543;SDS011;17996;51.056;3.656;2024-03-06T05:00:35;18.88;;;14.52;;
27543;SDS011;17996;51.056;3.656;2024-03-06T05:03:00;21.27;;;13.98;;
27543;SDS011;17996;51.056;3.656;2024-03-06T05:05:38;18.73;;;13.30;;
27543;SDS011;17996;51.056;3.656;2024-03-06T05:08:11;16.77;;;13.47;;
27543;SDS011;17996;51.056;3.656;2024-03-06T05:10:36;17.15;;;12.85;;
27543;SDS011;17996;51.056;3.656;2024-03-06T05:13:03;21.73;;;14.63;;
27543;SDS011;17996;51.056;3.656;2024-03-06T05:15:31;20.95;;;13.63;;
27543;SDS011;17996;51.056;3.656;2024-03-06T05:20:28;16.98;;;12.60;;
27543;SDS011;17996;51.056;3.656;2024-03-06T05:22:57;19.38;;;13.77;;
27543;SDS011;17996;51.056;3.656;2024-03-06T05:25:23;19.65;;;13.30;;
27543;SDS011;17996;51.056;3.656;2024-03-06T05:27:50;17.40;;;14.10;;
27543;SDS011;17996;51.056;3.656;2024-03-06T05:30:15;18.25;;;13.23;;
27543;SDS011;17996;51.056;3.656;2024-03-06T05:32:43;19.33;;;13.35;;
27543;SDS011;17996;51.056;3.656;2024-03-06T05:35:11;22.58;;;14.93;;
27543;SDS011;17996;51.056;3.656;2024-03-06T05:37:41;18.67;;;14.02;;
27543;SDS011;17996;51.056;3.656;2024-03-06T05:40:07;19.83;;;14.30;;
27543;SDS011;17996;51.056;3.656;2024-03-06T05:42:36;19.65;;;14.77;;
27543;SDS011;17996;51.056;3.656;2024-03-06T05:45:02;20.67;;;13.85;;
27543;SDS011;17996;51.056;3.656;2024-03-06T05:47:35;19.42;;;14.65;;
27543;SDS011;17996;51.056;3.656;2024-03-06T05:50:02;20.17;;;13.77;;
27543;SDS011;17996;51.056;3.656;2024-03-06T05:52:32;20.20;;;15.00;;
27543;SDS011;17996;51.056;3.656;2024-03-06T05:55:02;21.00;;;14.80;;
27543;SDS011;17996;51.056;3.656;2024-03-06T05:57:32;18.92;;;13.55;;
27543;SDS011;17996;51.056;3.656;2024-03-06T05:59:58;17.70;;;14.25;;
27543;SDS011;17996;51.056;3.656;2024-03-06T06:02:23;25.10;;;16.45;;
27543;SDS011;17996;51.056;3.656;2024-03-06T06:04:50;22.75;;;15.23;;
27543;SDS011;17996;51.056;3.656;2024-03-06T06:07:17;20.60;;;14.32;;
27543;SDS011;17996;51.056;3.656;2024-03-06T06:09:43;22.60;;;15.18;;
27543;SDS011;17996;51.056;3.656;2024-03-06T06:12:09;19.73;;;15.50;;
27543;SDS011;17996;51.056;3.656;2024-03-06T06:14:34;21.67;;;15.85;;
27543;SDS011;17996;51.056;3.656;2024-03-06T06:17:01;22.83;;;16.48;;
27543;SDS011;17996;51.056;3.656;2024-03-06T06:21:57;19.35;;;14.70;;
27543;SDS011;17996;51.056;3.656;2024-03-06T06:24:24;24.17;;;14.55;;
27543;SDS011;17996;51.056;3.656;2024-03-06T06:26:49;23.52;;;15.68;;
27543;SDS011;17996;51.056;3.656;2024-03-06T06:31:46;23.98;;;14.95;;
27543;SDS011;17996;51.056;3.656;2024-03-06T06:39:11;20.15;;;14.90;;
27543;SDS011;17996;51.056;3.656;2024-03-06T06:41:38;22.80;;;15.48;;
27543;SDS011;17996;51.056;3.656;2024-03-06T06:44:05;19.60;;;15.20;;
27543;SDS011;17996;51.056;3.656;2024-03-06T06:46:32;22.23;;;15.55;;
27543;SDS011;17996;51.056;3.656;2024-03-06T06:48:59;23.27;;;15.38;;
27543;SDS011;17996;51.056;3.656;2024-03-06T06:51:25;38.10;;;16.83;;
27543;SDS011;17996;51.056;3.656;2024-03-06T06:53:51;24.23;;;17.73;;
27543;SDS011;17996;51.056;3.656;2024-03-06T06:56:16;22.20;;;17.10;;
27543;SDS011;17996;51.056;3.656;2024-03-06T06:58:42;25.70;;;18.05;;
27543;SDS011;17996;51.056;3.656;2024-03-06T07:01:09;23.00;;;16.25;;
27543;SDS011;17996;51.056;3.656;2024-03-06T07:03:36;22.90;;;17.90;;
27543;SDS011;17996;51.056;3.656;2024-03-06T07:06:02;28.27;;;19.02;;
27543;SDS011;17996;51.056;3.656;2024-03-06T07:10:58;31.67;;;18.85;;
27543;SDS011;17996;51.056;3.656;2024-03-06T07:13:25;24.48;;;16.95;;
27543;SDS011;17996;51.056;3.656;2024-03-06T07:15:52;23.40;;;17.77;;
27543;SDS011;17996;51.056;3.656;2024-03-06T07:18:18;26.92;;;20.02;;
27543;SDS011;17996;51.056;3.656;2024-03-06T07:20:44;29.52;;;18.77;;
27543;SDS011;17996;51.056;3.656;2024-03-06T07:25:42;29.85;;;22.25;;
27543;SDS011;17996;51.056;3.656;2024-03-06T07:28:08;27.58;;;20.67;;
27543;SDS011;17996;51.056;3.656;2024-03-06T07:30:35;32.33;;;20.80;;
27543;SDS011;17996;51.056;3.656;2024-03-06T07:33:02;26.88;;;20.83;;
27543;SDS011;17996;51.056;3.656;2024-03-06T07:35:28;30.95;;;21.38;;
27543;SDS011;17996;51.056;3.656;2024-03-06T07:37:54;31.45;;;21.65;;
27543;SDS011;17996;51.056;3.656;2024-03-06T07:40:20;31.00;;;22.20;;
27543;SDS011;17996;51.056;3.656;2024-03-06T07:42:48;32.25;;;21.90;;
27543;SDS011;17996;51.056;3.656;2024-03-06T07:45:14;33.92;;;22.70;;
27543;SDS011;17996;51.056;3.656;2024-03-06T07:47:41;30.98;;;21.65;;
27543;SDS011;17996;51.056;3.656;2024-03-06T07:50:07;35.70;;;21.98;;
27543;SDS011;17996;51.056;3.656;2024-03-06T07:52:36;34.40;;;22.85;;
27543;SDS011;17996;51.056;3.656;2024-03-06T07:57:32;35.47;;;23.27;;
27543;SDS011;17996;51.056;3.656;2024-03-06T07:59:59;35.72;;;25.05;;
27543;SDS011;17996;51.056;3.656;2024-03-06T08:02:27;46.10;;;27.27;;
27543;SDS011;17996;51.056;3.656;2024-03-06T08:04:53;40.00;;;25.98;;
27543;SDS011;17996;51.056;3.656;2024-03-06T08:07:20;33.50;;;23.80;;
27543;SDS011;17996;51.056;3.656;2024-03-06T08:09:47;41.53;;;27.95;;
27543;SDS011;17996;51.056;3.656;2024-03-06T08:12:19;42.65;;;27.42;;
27543;SDS011;17996;51.056;3.656;2024-03-06T08:14:45;43.30;;;26.50;;
27543;SDS011;17996;51.056;3.656;2024-03-06T08:17:12;43.95;;;24.90;;
27543;SDS011;17996;51.056;3.656;2024-03-06T08:19:38;45.10;;;28.00;;
27543;SDS011;17996;51.056;3.656;2024-03-06T08:22:05;42.95;;;27.73;;
27543;SDS011;17996;51.056;3.656;2024-03-06T08:24:32;42.17;;;27.38;;
27543;SDS011;17996;51.056;3.656;2024-03-06T08:26:58;44.17;;;27.15;;
27543;SDS011;17996;51.056;3.656;2024-03-06T08:29:25;45.83;;;28.50;;
27543;SDS011;17996;51.056;3.656;2024-03-06T08:31:53;47.00;;;27.80;;
27543;SDS011;17996;51.056;3.656;2024-03-06T08:34:25;52.20;;;30.90;;
27543;SDS011;17996;51.056;3.656;2024-03-06T08:36:50;55.97;;;33.13;;
27543;SDS011;17996;51.056;3.656;2024-03-06T08:39:20;61.33;;;32.75;;
27543;SDS011;17996;51.056;3.656;2024-03-06T08:41:47;56.40;;;34.33;;
27543;SDS011;17996;51.056;3.656;2024-03-06T08:44:14;55.40;;;34.17;;
27543;SDS011;17996;51.056;3.656;2024-03-06T08:46:40;59.40;;;33.55;;
27543;SDS011;17996;51.056;3.656;2024-03-06T08:49:06;52.97;;;32.00;;
27543;SDS011;17996;51.056;3.656;2024-03-06T08:51:33;56.50;;;32.13;;
27543;SDS011;17996;51.056;3.656;2024-03-06T08:54:00;51.67;;;31.65;;
27543;SDS011;17996;51.056;3.656;2024-03-06T08:56:33;50.23;;;30.70;;
27543;SDS011;17996;51.056;3.656;2024-03-06T08:59:02;55.88;;;31.42;;
27543;SDS011;17996;51.056;3.656;2024-03-06T09:01:28;56.03;;;30.17;;
27543;SDS011;17996;51.056;3.656;2024-03-06T09:03:54;59.33;;;32.80;;
27543;SDS011;17996;51.056;3.656;2024-03-06T09:06:24;58.42;;;32.88;;
27543;SDS011;17996;51.056;3.656;2024-03-06T09:08:53;55.22;;;33.10;;
27543;SDS011;17996;51.056;3.656;2024-03-06T09:11:25;58.72;;;31.88;;
27543;SDS011;17996;51.056;3.656;2024-03-06T09:13:50;57.45;;;33.17;;
27543;SDS011;17996;51.056;3.656;2024-03-06T09:16:17;54.40;;;32.47;;
27543;SDS011;17996;51.056;3.656;2024-03-06T09:18:43;57.03;;;32.38;;
27543;SDS011;17996;51.056;3.656;2024-03-06T09:21:09;55.47;;;31.48;;
27543;SDS011;17996;51.056;3.656;2024-03-06T09:23:34;51.15;;;31.08;;
27543;SDS011;17996;51.056;3.656;2024-03-06T09:26:00;63.88;;;33.78;;
27543;SDS011;17996;51.056;3.656;2024-03-06T09:28:28;58.67;;;32.30;;
27543;SDS011;17996;51.056;3.656;2024-03-06T09:30:54;52.42;;;31.70;;
27543;SDS011;17996;51.056;3.656;2024-03-06T09:33:20;56.40;;;31.90;;
27543;SDS011;17996;51.056;3.656;2024-03-06T09:35:46;54.92;;;31.75;;
27543;SDS011;17996;51.056;3.656;2024-03-06T09:38:12;56.28;;;32.88;;
27543;SDS011;17996;51.056;3.656;2024-03-06T09:40:40;49.17;;;31.92;;
27543;SDS011;17996;51.056;3.656;2024-03-06T09:43:06;55.22;;;32.58;;
27543;SDS011;17996;51.056;3.656;2024-03-06T09:45:33;54.35;;;31.60;;
27543;SDS011;17996;51.056;3.656;2024-03-06T09:47:58;51.83;;;30.48;;
27543;SDS011;17996;51.056;3.656;2024-03-06T09:50:25;46.97;;;28.52;;
27543;SDS011;17996;51.056;3.656;2024-03-06T09:55:21;51.15;;;29.77;;
27543;SDS011;17996;51.056;3.656;2024-03-06T09:57:49;53.33;;;32.05;;
27543;SDS011;17996;51.056;3.656;2024-03-06T10:00:15;49.38;;;29.92;;
27543;SDS011;17996;51.056;3.656;2024-03-06T10:02:46;47.88;;;28.80;;
27543;SDS011;17996;51.056;3.656;2024-03-06T10:05:26;51.30;;;29.80;;
27543;SDS011;17996;51.056;3.656;2024-03-06T10:07:52;48.25;;;28.42;;
27543;SDS011;17996;51.056;3.656;2024-03-06T10:10:19;50.42;;;29.13;;
27543;SDS011;17996;51.056;3.656;2024-03-06T10:12:46;50.70;;;27.50;;
27543;SDS011;17996;51.056;3.656;2024-03-06T10:15:13;43.15;;;26.50;;
27543;SDS011;17996;51.056;3.656;2024-03-06T10:17:39;45.95;;;28.88;;
27543;SDS011;17996;51.056;3.656;2024-03-06T10:20:16;45.33;;;29.00;;
27543;SDS011;17996;51.056;3.656;2024-03-06T10:22:49;48.78;;;27.73;;
27543;SDS011;17996;51.056;3.656;2024-03-06T10:25:18;45.55;;;28.05;;
27543;SDS011;17996;51.056;3.656;2024-03-06T10:28:27;48.55;;;29.15;;
27543;SDS011;17996;51.056;3.656;2024-03-06T10:30:39;43.53;;;26.48;;
27543;SDS011;17996;51.056;3.656;2024-03-06T10:33:09;41.05;;;27.95;;
27543;SDS011;17996;51.056;3.656;2024-03-06T10:35:35;43.05;;;27.65;;
27543;SDS011;17996;51.056;3.656;2024-03-06T10:38:03;46.55;;;28.45;;
27543;SDS011;17996;51.056;3.656;2024-03-06T10:40:30;39.78;;;26.33;;
27543;SDS011;17996;51.056;3.656;2024-03-06T10:43:01;46.45;;;28.67;;
27543;SDS011;17996;51.056;3.656;2024-03-06T10:45:47;46.47;;;28.42;;
27543;SDS011;17996;51.056;3.656;2024-03-06T10:48:18;43.30;;;25.88;;
27543;SDS011;17996;51.056;3.656;2024-03-06T10:50:45;42.50;;;27.35;;
27543;SDS011;17996;51.056;3.656;2024-03-06T10:53:13;47.50;;;27.90;;
27543;SDS011;17996;51.056;3.656;2024-03-06T10:55:42;44.72;;;28.58;;
27543;SDS011;17996;51.056;3.656;2024-03-06T10:58:12;42.70;;;26.42;;
27543;SDS011;17996;51.056;3.656;2024-03-06T11:00:42;43.08;;;27.45;;
27543;SDS011;17996;51.056;3.656;2024-03-06T11:03:13;44.88;;;27.08;;
27543;SDS011;17996;51.056;3.656;2024-03-06T11:05:43;48.17;;;29.67;;
27543;SDS011;17996;51.056;3.656;2024-03-06T11:08:12;42.72;;;26.05;;
27543;SDS011;17996;51.056;3.656;2024-03-06T11:10:40;45.88;;;28.35;;
27543;SDS011;17996;51.056;3.656;2024-03-06T11:13:23;45.38;;;27.38;;
27543;SDS011;17996;51.056;3.656;2024-03-06T11:15:51;34.25;;;23.95;;
27543;SDS011;17996;51.056;3.656;2024-03-06T11:23:28;41.85;;;25.08;;
27543;SDS011;17996;51.056;3.656;2024-03-06T11:28:31;37.05;;;23.63;;
27543;SDS011;17996;51.056;3.656;2024-03-06T11:31:04;44.70;;;27.02;;
27543;SDS011;17996;51.056;3.656;2024-03-06T11:33:47;41.25;;;25.02;;
27543;SDS011;17996;51.056;3.656;2024-03-06T11:41:29;39.72;;;23.95;;
27543;SDS011;17996;51.056;3.656;2024-03-06T11:43:56;35.88;;;22.30;;
27543;SDS011;17996;51.056;3.656;2024-03-06T11:49:18;32.97;;;21.65;;
27543;SDS011;17996;51.056;3.656;2024-03-06T11:51:53;37.60;;;23.27;;
27543;SDS011;17996;51.056;3.656;2024-03-06T11:54:20;32.78;;;21.77;;
27543;SDS011;17996;51.056;3.656;2024-03-06T11:56:55;28.77;;;21.38;;
27543;SDS011;17996;51.056;3.656;2024-03-06T11:59:23;32.75;;;21.17;;
27543;SDS011;17996;51.056;3.656;2024-03-06T12:01:54;34.80;;;21.88;;
27543;SDS011;17996;51.056;3.656;2024-03-06T12:04:21;34.20;;;21.48;;
27543;SDS011;17996;51.056;3.656;2024-03-06T12:06:47;31.25;;;20.35;;
27543;SDS011;17996;51.056;3.656;2024-03-06T12:09:14;34.15;;;20.70;;
27543;SDS011;17996;51.056;3.656;2024-03-06T12:11:42;31.42;;;19.88;;
27543;SDS011;17996;51.056;3.656;2024-03-06T12:14:14;29.40;;;18.67;;
27543;SDS011;17996;51.056;3.656;2024-03-06T12:16:44;26.23;;;17.90;;
27543;SDS011;17996;51.056;3.656;2024-03-06T12:21:53;26.27;;;17.33;;
27543;SDS011;17996;51.056;3.656;2024-03-06T12:24:19;24.77;;;15.32;;
27543;SDS011;17996;51.056;3.656;2024-03-06T12:26:45;30.27;;;16.55;;
27543;SDS011;17996;51.056;3.656;2024-03-06T12:29:18;38.50;;;16.42;;
27543;SDS011;17996;51.056;3.656;2024-03-06T12:31:47;22.58;;;14.15;;
27543;SDS011;17996;51.056;3.656;2024-03-06T12:34:16;24.42;;;14.80;;
27543;SDS011;17996;51.056;3.656;2024-03-06T12:36:42;21.23;;;12.95;;
27543;SDS011;17996;51.056;3.656;2024-03-06T12:39:08;20.90;;;14.18;;
27543;SDS011;17996;51.056;3.656;2024-03-06T12:41:42;21.13;;;12.95;;
27543;SDS011;17996;51.056;3.656;2024-03-06T12:44:08;18.83;;;12.43;;
27543;SDS011;17996;51.056;3.656;2024-03-06T12:46:34;18.48;;;11.40;;
27543;SDS011;17996;51.056;3.656;2024-03-06T12:49:00;16.55;;;10.52;;
27543;SDS011;17996;51.056;3.656;2024-03-06T12:51:28;15.18;;;9.38;;
27543;SDS011;17996;51.056;3.656;2024-03-06T12:53:54;15.27;;;10.57;;
27543;SDS011;17996;51.056;3.656;2024-03-06T12:56:21;15.95;;;9.75;;
27543;SDS011;17996;51.056;3.656;2024-03-06T12:58:47;14.73;;;9.20;;
27543;SDS011;17996;51.056;3.656;2024-03-06T13:01:13;18.05;;;10.15;;
27543;SDS011;17996;51.056;3.656;2024-03-06T13:03:39;15.40;;;9.88;;
27543;SDS011;17996;51.056;3.656;2024-03-06T13:06:05;16.38;;;9.48;;
27543;SDS011;17996;51.056;3.656;2024-03-06T13:08:31;17.83;;;10.70;;
27543;SDS011;17996;51.056;3.656;2024-03-06T13:10:57;18.77;;;10.05;;
27543;SDS011;17996;51.056;3.656;2024-03-06T13:13:23;19.38;;;9.90;;
27543;SDS011;17996;51.056;3.656;2024-03-06T13:15:54;14.45;;;9.63;;
27543;SDS011;17996;51.056;3.656;2024-03-06T13:18:19;14.77;;;9.23;;
27543;SDS011;17996;51.056;3.656;2024-03-06T13:20:45;13.65;;;9.27;;
27543;SDS011;17996;51.056;3.656;2024-03-06T13:23:11;14.57;;;9.95;;
27543;SDS011;17996;51.056;3.656;2024-03-06T13:25:39;17.52;;;9.45;;
27543;SDS011;17996;51.056;3.656;2024-03-06T13:28:06;17.73;;;9.20;;
27543;SDS011;17996;51.056;3.656;2024-03-06T13:30:32;13.48;;;8.07;;
27543;SDS011;17996;51.056;3.656;2024-03-06T13:32:58;11.73;;;6.68;;
27543;SDS011;17996;51.056;3.656;2024-03-06T13:35:24;13.13;;;6.43;;
27543;SDS011;17996;51.056;3.656;2024-03-06T13:37:50;9.65;;;6.57;;
27543;SDS011;17996;51.056;3.656;2024-03-06T13:40:16;12.10;;;7.32;;
27543;SDS011;17996;51.056;3.656;2024-03-06T13:42:42;10.75;;;6.97;;
27543;SDS011;17996;51.056;3.656;2024-03-06T13:45:09;12.73;;;6.80;;
27543;SDS011;17996;51.056;3.656;2024-03-06T13:47:39;13.48;;;6.20;;
27543;SDS011;17996;51.056;3.656;2024-03-06T13:50:07;9.18;;;6.05;;
27543;SDS011;17996;51.056;3.656;2024-03-06T13:52:34;17.77;;;8.90;;
27543;SDS011;17996;51.056;3.656;2024-03-06T13:55:00;14.25;;;7.15;;
27543;SDS011;17996;51.056;3.656;2024-03-06T13:57:36;10.25;;;7.20;;
27543;SDS011;17996;51.056;3.656;2024-03-06T14:00:04;14.00;;;6.60;;
27543;SDS011;17996;51.056;3.656;2024-03-06T14:02:32;9.30;;;6.47;;
27543;SDS011;17996;51.056;3.656;2024-03-06T14:04:58;9.15;;;5.70;;
27543;SDS011;17996;51.056;3.656;2024-03-06T14:07:24;8.98;;;6.05;;
27543;SDS011;17996;51.056;3.656;2024-03-06T14:09:50;8.32;;;6.03;;
27543;SDS011;17996;51.056;3.656;2024-03-06T14:12:16;8.00;;;4.30;;
27543;SDS011;17996;51.056;3.656;2024-03-06T14:14:43;10.90;;;4.32;;
27543;SDS011;17996;51.056;3.656;2024-03-06T14:17:10;13.73;;;4.07;;
27543;SDS011;17996;51.056;3.656;2024-03-06T14:19:37;11.75;;;3.65;;
27543;SDS011;17996;51.056;3.656;2024-03-06T14:22:06;6.50;;;3.60;;
27543;SDS011;17996;51.056;3.656;2024-03-06T14:24:33;10.38;;;3.80;;
27543;SDS011;17996;51.056;3.656;2024-03-06T14:27:01;7.35;;;3.30;;
27543;SDS011;17996;51.056;3.656;2024-03-06T14:29:28;6.20;;;2.72;;
27543;SDS011;17996;51.056;3.656;2024-03-06T14:31:54;7.20;;;3.25;;
27543;SDS011;17996;51.056;3.656;2024-03-06T14:34:24;6.50;;;2.90;;
27543;SDS011;17996;51.056;3.656;2024-03-06T14:36:52;5.90;;;3.10;;
27543;SDS011;17996;51.056;3.656;2024-03-06T14:39:19;3.78;;;2.90;;
27543;SDS011;17996;51.056;3.656;2024-03-06T14:41:48;6.88;;;2.65;;
27543;SDS011;17996;51.056;3.656;2024-03-06T14:44:15;8.02;;;2.90;;
27543;SDS011;17996;51.056;3.656;2024-03-06T14:46:41;9.43;;;3.53;;
27543;SDS011;17996;51.056;3.656;2024-03-06T14:49:08;11.93;;;3.78;;
27543;SDS011;17996;51.056;3.656;2024-03-06T14:51:35;5.38;;;3.00;;
27543;SDS011;17996;51.056;3.656;2024-03-06T14:54:03;7.95;;;3.00;;
27543;SDS011;17996;51.056;3.656;2024-03-06T14:59:00;14.50;;;3.63;;
27543;SDS011;17996;51.056;3.656;2024-03-06T15:01:27;9.48;;;3.33;;
27543;SDS011;17996;51.056;3.656;2024-03-06T15:03:53;6.25;;;2.97;;
27543;SDS011;17996;51.056;3.656;2024-03-06T15:06:21;7.53;;;2.67;;
27543;SDS011;17996;51.056;3.656;2024-03-06T15:08:49;8.98;;;3.67;;
27543;SDS011;17996;51.056;3.656;2024-03-06T15:11:15;10.30;;;3.05;;
27543;SDS011;17996;51.056;3.656;2024-03-06T15:13:41;6.50;;;3.00;;
27543;SDS011;17996;51.056;3.656;2024-03-06T15:16:08;4.60;;;3.13;;
27543;SDS011;17996;51.056;3.656;2024-03-06T15:18:35;7.97;;;3.10;;
27543;SDS011;17996;51.056;3.656;2024-03-06T15:21:02;11.48;;;2.88;;
27543;SDS011;17996;51.056;3.656;2024-03-06T15:23:28;7.15;;;3.58;;
27543;SDS011;17996;51.056;3.656;2024-03-06T15:25:58;7.72;;;3.25;;
27543;SDS011;17996;51.056;3.656;2024-03-06T15:28:25;12.30;;;4.50;;
27543;SDS011;17996;51.056;3.656;2024-03-06T15:30:51;6.03;;;3.25;;
27543;SDS011;17996;51.056;3.656;2024-03-06T15:33:18;4.53;;;3.10;;
27543;SDS011;17996;51.056;3.656;2024-03-06T15:35:44;9.98;;;3.30;;
27543;SDS011;17996;51.056;3.656;2024-03-06T15:38:10;8.63;;;3.95;;
27543;SDS011;17996;51.056;3.656;2024-03-06T15:40:37;8.40;;;3.03;;
27543;SDS011;17996;51.056;3.656;2024-03-06T15:43:02;5.25;;;2.80;;
27543;SDS011;17996;51.056;3.656;2024-03-06T15:45:34;11.77;;;3.65;;
27543;SDS011;17996;51.056;3.656;2024-03-06T15:48:00;9.65;;;3.88;;
27543;SDS011;17996;51.056;3.656;2024-03-06T15:50:25;7.80;;;3.70;;